Time,TemperatureF,DewpointF,PressureIn,WindDirection,WindDirectionDegrees,WindSpeedMPH,WindSpeedGustMPH,Humidity,HourlyPrecipIn,Conditions,Clouds,dailyrainin,SoftwareType,DateUTC
2013-06-18 00:00:00,67.5,64.5,29.85,West,276,0.0,0.0,90,0.00,,,0.00,Wunderground v.1.15,2013-06-18 05:00:00,
2013-06-18 00:06:00,67.5,64.5,29.85,West,276,0.0,0.0,90,0.00,,,0.00,Wunderground v.1.15,2013-06-18 05:06:00,
2013-06-18 00:11:00,67.3,64.6,29.85,West,276,0.0,0.0,91,0.00,,,0.00,Wunderground v.1.15,2013-06-18 05:11:00,
2013-06-18 00:16:00,67.1,64.4,29.85,West,276,0.0,0.0,91,0.00,,,0.00,Wunderground v.1.15,2013-06-18 05:16:00,
2013-06-18 00:21:00,66.7,64.3,29.85,West,276,0.0,0.0,92,0.00,,,0.00,Wunderground v.1.15,2013-06-18 05:21:00,
2013-06-18 00:26:00,66.4,64.0,29.85,West,276,0.0,0.0,92,0.00,,,0.00,Wunderground v.1.15,2013-06-18 05:26:00,
2013-06-18 00:31:00,66.2,64.1,29.85,West,276,0.0,0.0,93,0.00,,,0.00,Wunderground v.1.15,2013-06-18 05:31:00,
2013-06-18 00:37:00,65.9,63.8,29.85,West,276,0.0,0.0,93,0.00,,,0.00,Wunderground v.1.15,2013-06-18 05:37:00,
2013-06-18 00:42:00,65.8,63.7,29.85,West,276,0.0,0.0,93,0.00,,,0.00,Wunderground v.1.15,2013-06-18 05:42:00,
2013-06-18 00:47:00,65.6,63.8,29.85,West,276,0.0,0.0,94,0.00,,,0.00,Wunderground v.1.15,2013-06-18 05:47:00,
2013-06-18 00:52:00,65.6,63.8,29.85,West,276,0.0,0.0,94,0.00,,,0.00,Wunderground v.1.15,2013-06-18 05:52:00,
2013-06-18 00:57:00,65.5,63.7,29.85,West,276,0.0,0.0,94,0.00,,,0.00,Wunderground v.1.15,2013-06-18 05:57:00,
2013-06-18 01:03:00,65.4,63.6,29.85,West,276,0.0,0.0,94,0.00,,,0.00,Wunderground v.1.15,2013-06-18 06:03:00,
2013-06-18 01:08:00,65.2,63.4,29.85,West,276,0.0,0.0,94,0.00,,,0.00,Wunderground v.1.15,2013-06-18 06:08:00,
2013-06-18 01:13:00,65.1,63.6,29.85,West,276,0.0,0.0,95,0.00,,,0.00,Wunderground v.1.15,2013-06-18 06:13:00,
2013-06-18 01:18:00,65.0,63.5,29.84,West,276,0.0,0.0,95,0.00,,,0.00,Wunderground v.1.15,2013-06-18 06:18:00,
2013-06-18 01:23:00,64.9,63.4,29.85,SSW,204,0.0,0.0,95,0.00,,,0.00,Wunderground v.1.15,2013-06-18 06:23:00,
2013-06-18 01:29:00,64.8,63.3,29.85,ESE,117,0.0,0.0,95,0.00,,,0.00,Wunderground v.1.15,2013-06-18 06:29:00,
2013-06-18 01:34:00,65.1,63.9,29.85,ESE,113,0.0,0.0,96,0.00,,,0.00,Wunderground v.1.15,2013-06-18 06:34:00,
2013-06-18 01:39:00,65.4,64.2,29.85,SE,124,0.0,0.0,96,0.00,,,0.00,Wunderground v.1.15,2013-06-18 06:39:00,
2013-06-18 01:44:00,65.6,64.1,29.85,ESE,123,0.0,0.0,95,0.00,,,0.00,Wunderground v.1.15,2013-06-18 06:44:00,
2013-06-18 01:49:00,65.8,64.3,29.86,ESE,122,0.0,0.0,95,0.00,,,0.00,Wunderground v.1.15,2013-06-18 06:49:00,
2013-06-18 01:55:00,65.9,64.4,29.85,SE,124,0.0,0.0,95,0.00,,,0.00,Wunderground v.1.15,2013-06-18 06:55:00,
2013-06-18 02:00:00,65.8,64.0,29.85,SE,124,0.0,0.0,94,0.00,,,0.00,Wunderground v.1.15,2013-06-18 07:00:00,
2013-06-18 02:06:00,65.5,63.7,29.86,SE,124,0.0,0.0,94,0.00,,,0.00,Wunderground v.1.15,2013-06-18 07:06:00,
2013-06-18 02:11:00,65.2,63.4,29.86,SE,124,0.0,0.0,94,0.00,,,0.00,Wunderground v.1.15,2013-06-18 07:11:00,
2013-06-18 02:17:00,65.1,63.3,29.86,ESE,123,0.0,0.0,94,0.00,,,0.00,Wunderground v.1.15,2013-06-18 07:17:00,
2013-06-18 02:22:00,64.9,63.4,29.86,ENE,57,0.0,0.0,95,0.00,,,0.00,Wunderground v.1.15,2013-06-18 07:22:00,
2013-06-18 02:27:00,65.1,63.6,29.86,NE,53,0.0,1.0,95,0.00,,,0.00,Wunderground v.1.15,2013-06-18 07:27:00,
2013-06-18 02:32:00,65.2,63.7,29.86,NNE,16,0.0,0.0,95,0.00,,,0.00,Wunderground v.1.15,2013-06-18 07:32:00,
2013-06-18 02:37:00,65.2,63.7,29.86,ENE,73,0.0,0.0,95,0.00,,,0.00,Wunderground v.1.15,2013-06-18 07:37:00,
2013-06-18 02:43:00,65.2,63.4,29.86,ENE,75,0.0,0.0,94,0.00,,,0.00,Wunderground v.1.15,2013-06-18 07:43:00,
2013-06-18 02:48:00,65.1,63.6,29.86,ENE,75,0.0,0.0,95,0.00,,,0.00,Wunderground v.1.15,2013-06-18 07:48:00,
2013-06-18 02:53:00,64.9,63.4,29.86,ENE,71,0.0,0.0,95,0.00,,,0.00,Wunderground v.1.15,2013-06-18 07:53:00,
2013-06-18 02:58:00,64.6,63.1,29.86,NE,51,0.0,0.0,95,0.00,,,0.00,Wunderground v.1.15,2013-06-18 07:58:00,
2013-06-18 03:03:00,64.5,63.0,29.86,NE,51,0.0,0.0,95,0.00,,,0.00,Wunderground v.1.15,2013-06-18 08:03:00,
2013-06-18 03:09:00,64.5,63.0,29.86,NE,53,0.0,0.0,95,0.00,,,0.00,Wunderground v.1.15,2013-06-18 08:09:00,
2013-06-18 03:14:00,64.4,62.9,29.86,NE,53,0.0,0.0,95,0.00,,,0.00,Wunderground v.1.15,2013-06-18 08:14:00,
2013-06-18 03:19:00,64.4,63.2,29.86,NE,51,0.0,0.0,96,0.00,,,0.00,Wunderground v.1.15,2013-06-18 08:19:00,
2013-06-18 03:24:00,64.3,63.1,29.86,East,82,0.0,0.0,96,0.00,,,0.00,Wunderground v.1.15,2013-06-18 08:24:00,
2013-06-18 03:29:00,64.3,63.1,29.86,East,82,0.0,0.0,96,0.00,,,0.00,Wunderground v.1.15,2013-06-18 08:29:00,
2013-06-18 03:35:00,64.5,63.3,29.86,East,82,0.0,0.0,96,0.00,,,0.00,Wunderground v.1.15,2013-06-18 08:35:00,
2013-06-18 03:40:00,64.5,63.3,29.86,East,82,0.0,0.0,96,0.00,,,0.00,Wunderground v.1.15,2013-06-18 08:40:00,
2013-06-18 03:45:00,64.3,63.1,29.86,East,82,0.0,0.0,96,0.00,,,0.00,Wunderground v.1.15,2013-06-18 08:45:00,
2013-06-18 03:50:00,64.1,62.9,29.86,East,82,0.0,0.0,96,0.00,,,0.00,Wunderground v.1.15,2013-06-18 08:50:00,
2013-06-18 03:55:00,64.0,62.8,29.86,East,82,0.0,0.0,96,0.00,,,0.00,Wunderground v.1.15,2013-06-18 08:55:00,
2013-06-18 04:00:00,63.9,62.7,29.86,East,82,0.0,0.0,96,0.00,,,0.00,Wunderground v.1.15,2013-06-18 09:00:00,
2013-06-18 04:06:00,63.8,62.6,29.87,East,82,0.0,0.0,96,0.00,,,0.00,Wunderground v.1.15,2013-06-18 09:06:00,
2013-06-18 04:11:00,63.7,62.5,29.87,SE,142,0.0,0.0,96,0.00,,,0.00,Wunderground v.1.15,2013-06-18 09:11:00,
2013-06-18 04:16:00,63.6,62.4,29.87,SE,142,0.0,0.0,96,0.00,,,0.00,Wunderground v.1.15,2013-06-18 09:16:00,
2013-06-18 04:21:00,63.6,62.4,29.87,SE,142,0.0,0.0,96,0.00,,,0.00,Wunderground v.1.15,2013-06-18 09:21:00,
2013-06-18 04:27:00,63.6,62.7,29.87,SE,142,0.0,0.0,97,0.00,,,0.00,Wunderground v.1.15,2013-06-18 09:27:00,
2013-06-18 04:32:00,63.6,62.7,29.87,SE,142,0.0,0.0,97,0.00,,,0.00,Wunderground v.1.15,2013-06-18 09:32:00,
2013-06-18 04:37:00,63.5,62.3,29.87,SE,142,0.0,0.0,96,0.00,,,0.00,Wunderground v.1.15,2013-06-18 09:37:00,
2013-06-18 04:42:00,63.3,62.1,29.87,SE,142,0.0,0.0,96,0.00,,,0.00,Wunderground v.1.15,2013-06-18 09:42:00,
2013-06-18 04:47:00,63.2,62.0,29.87,SE,142,0.0,0.0,96,0.00,,,0.00,Wunderground v.1.15,2013-06-18 09:47:00,
2013-06-18 04:53:00,63.2,62.3,29.87,SE,142,0.0,0.0,97,0.00,,,0.00,Wunderground v.1.15,2013-06-18 09:53:00,
2013-06-18 04:58:00,63.0,61.8,29.87,SE,142,0.0,0.0,96,0.00,,,0.00,Wunderground v.1.15,2013-06-18 09:58:00,
2013-06-18 05:03:00,62.8,61.6,29.87,SE,142,0.0,0.0,96,0.00,,,0.00,Wunderground v.1.15,2013-06-18 10:03:00,
2013-06-18 05:08:00,62.7,61.8,29.87,SE,142,0.0,0.0,97,0.00,,,0.00,Wunderground v.1.15,2013-06-18 10:08:00,
2013-06-18 05:13:00,62.5,61.6,29.87,SE,142,0.0,0.0,97,0.00,,,0.00,Wunderground v.1.15,2013-06-18 10:13:00,
2013-06-18 05:19:00,62.6,61.7,29.88,NNE,22,0.0,0.0,97,0.00,,,0.00,Wunderground v.1.15,2013-06-18 10:19:00,
2013-06-18 05:24:00,62.8,61.9,29.88,ENE,60,0.0,0.0,97,0.00,,,0.00,Wunderground v.1.15,2013-06-18 10:24:00,
2013-06-18 05:29:00,63.0,62.1,29.88,NE,56,0.0,0.0,97,0.00,,,0.00,Wunderground v.1.15,2013-06-18 10:29:00,
2013-06-18 05:34:00,63.0,62.1,29.88,North,8,0.0,0.0,97,0.00,,,0.00,Wunderground v.1.15,2013-06-18 10:34:00,
2013-06-18 05:39:00,63.1,62.2,29.89,NNE,12,0.0,0.0,97,0.00,,,0.00,Wunderground v.1.15,2013-06-18 10:39:00,
2013-06-18 05:44:00,63.4,62.5,29.89,East,82,0.0,0.0,97,0.00,,,0.00,Wunderground v.1.15,2013-06-18 10:44:00,
2013-06-18 05:49:00,63.6,62.7,29.89,East,83,0.0,0.0,97,0.00,,,0.00,Wunderground v.1.15,2013-06-18 10:49:00,
2013-06-18 05:54:00,63.8,62.9,29.90,ENE,77,0.0,0.0,97,0.00,,,0.00,Wunderground v.1.15,2013-06-18 10:54:00,
2013-06-18 06:00:00,63.9,63.0,29.90,ENE,58,0.0,0.0,97,0.00,,,0.00,Wunderground v.1.15,2013-06-18 11:00:00,
2013-06-18 06:05:00,64.1,63.2,29.90,East,98,0.0,0.0,97,0.00,,,0.00,Wunderground v.1.15,2013-06-18 11:05:00,
2013-06-18 06:10:00,64.2,63.3,29.91,East,82,0.0,0.0,97,0.00,,,0.00,Wunderground v.1.15,2013-06-18 11:10:00,
2013-06-18 06:15:00,64.3,63.1,29.91,ENE,77,0.0,2.0,96,0.00,,,0.00,Wunderground v.1.15,2013-06-18 11:15:00,
2013-06-18 06:20:00,64.3,62.8,29.91,ENE,71,1.0,1.0,95,0.00,,,0.00,Wunderground v.1.15,2013-06-18 11:20:00,
2013-06-18 06:25:00,64.3,62.8,29.91,ENE,75,1.0,1.0,95,0.00,,,0.00,Wunderground v.1.15,2013-06-18 11:25:00,
2013-06-18 06:30:00,64.5,62.7,29.91,ENE,73,0.0,0.0,94,0.00,,,0.00,Wunderground v.1.15,2013-06-18 11:30:00,
2013-06-18 06:36:00,64.6,62.5,29.91,ENE,74,0.0,1.0,93,0.00,,,0.00,Wunderground v.1.15,2013-06-18 11:36:00,
2013-06-18 06:41:00,64.8,62.7,29.91,ENE,63,0.0,0.0,93,0.00,,,0.00,Wunderground v.1.15,2013-06-18 11:41:00,
2013-06-18 06:46:00,65.1,62.7,29.92,ENE,78,0.0,2.0,92,0.00,,,0.00,Wunderground v.1.15,2013-06-18 11:46:00,
2013-06-18 06:51:00,65.5,62.8,29.92,East,90,0.0,0.0,91,0.00,,,0.00,Wunderground v.1.15,2013-06-18 11:51:00,
2013-06-18 06:56:00,65.7,62.4,29.92,ENE,75,0.0,1.0,89,0.00,,,0.00,Wunderground v.1.15,2013-06-18 11:56:00,
2013-06-18 07:01:00,65.8,62.5,29.92,ENE,58,1.0,3.0,89,0.00,,,0.00,Wunderground v.1.15,2013-06-18 12:01:00,
2013-06-18 07:07:00,66.1,62.4,29.92,NNE,27,1.0,3.0,88,0.00,,,0.00,Wunderground v.1.15,2013-06-18 12:07:00,
2013-06-18 07:12:00,66.1,61.8,29.92,ESE,105,1.0,5.0,86,0.00,,,0.00,Wunderground v.1.15,2013-06-18 12:12:00,
2013-06-18 07:17:00,66.2,61.6,29.92,ESE,105,2.0,9.0,85,0.00,,,0.00,Wunderground v.1.15,2013-06-18 12:17:00,
2013-06-18 07:22:00,66.2,61.6,29.92,NNE,33,2.0,2.0,85,0.00,,,0.00,Wunderground v.1.15,2013-06-18 12:22:00,
2013-06-18 07:27:00,66.4,61.8,29.92,ESE,120,2.0,2.0,85,0.00,,,0.00,Wunderground v.1.15,2013-06-18 12:27:00,
2013-06-18 07:33:00,66.8,61.5,29.92,ENE,75,2.0,3.0,83,0.00,,,0.00,Wunderground v.1.15,2013-06-18 12:33:00,
2013-06-18 07:38:00,66.9,61.2,29.91,East,94,2.0,5.0,82,0.00,,,0.00,Wunderground v.1.15,2013-06-18 12:38:00,
2013-06-18 07:43:00,66.9,60.9,29.91,ENE,74,3.0,7.0,81,0.00,,,0.00,Wunderground v.1.15,2013-06-18 12:43:00,
2013-06-18 07:48:00,67.1,61.4,29.91,East,81,3.0,7.0,82,0.00,,,0.00,Wunderground v.1.15,2013-06-18 12:48:00,
2013-06-18 07:53:00,67.3,61.3,29.91,NNE,18,3.0,3.0,81,0.00,,,0.00,Wunderground v.1.15,2013-06-18 12:53:00,
2013-06-18 07:59:00,67.5,61.5,29.91,ENE,78,3.0,4.0,81,0.00,,,0.00,Wunderground v.1.15,2013-06-18 12:59:00,
2013-06-18 08:04:00,67.6,60.9,29.91,ENE,67,3.0,3.0,79,0.00,,,0.00,Wunderground v.1.15,2013-06-18 13:04:00,
2013-06-18 08:09:00,67.7,61.0,29.91,ENE,63,4.0,7.0,79,0.00,,,0.00,Wunderground v.1.15,2013-06-18 13:09:00,
2013-06-18 08:14:00,68.1,61.0,29.91,ENE,64,3.0,5.0,78,0.00,,,0.00,Wunderground v.1.15,2013-06-18 13:14:00,
2013-06-18 08:19:00,68.5,62.1,29.91,WNW,290,2.0,5.0,80,0.00,,,0.00,Wunderground v.1.15,2013-06-18 13:19:00,
2013-06-18 08:25:00,69.1,61.6,29.91,East,88,1.0,4.0,77,0.00,,,0.00,Wunderground v.1.15,2013-06-18 13:25:00,
2013-06-18 08:30:00,69.1,61.6,29.91,ENE,72,2.0,2.0,77,0.00,,,0.00,Wunderground v.1.15,2013-06-18 13:30:00,
2013-06-18 08:35:00,69.4,61.9,29.91,East,93,2.0,3.0,77,0.00,,,0.00,Wunderground v.1.15,2013-06-18 13:35:00,
2013-06-18 08:40:00,69.6,61.3,29.91,ENE,71,2.0,2.0,75,0.00,,,0.00,Wunderground v.1.15,2013-06-18 13:40:00,
2013-06-18 08:45:00,69.5,61.2,29.91,ENE,72,3.0,4.0,75,0.00,,,0.00,Wunderground v.1.15,2013-06-18 13:45:00,
2013-06-18 08:51:00,69.5,60.8,29.91,NNE,33,3.0,4.0,74,0.00,,,0.00,Wunderground v.1.15,2013-06-18 13:51:00,
2013-06-18 08:56:00,69.6,61.7,29.91,East,86,4.0,6.0,76,0.00,,,0.00,Wunderground v.1.15,2013-06-18 13:56:00,
2013-06-18 09:01:00,70.1,61.4,29.91,East,92,3.0,5.0,74,0.00,,,0.00,Wunderground v.1.15,2013-06-18 14:01:00,
2013-06-18 09:06:00,70.3,62.4,29.91,ENE,58,2.0,5.0,76,0.00,,,0.00,Wunderground v.1.15,2013-06-18 14:06:00,
2013-06-18 09:11:00,70.5,61.8,29.91,East,84,3.0,3.0,74,0.00,,,0.00,Wunderground v.1.15,2013-06-18 14:11:00,
2013-06-18 09:17:00,71.0,61.5,29.92,NE,51,2.0,5.0,72,0.00,,,0.00,Wunderground v.1.15,2013-06-18 14:17:00,
2013-06-18 09:22:00,71.1,61.6,29.92,NNW,330,2.0,4.0,72,0.00,,,0.00,Wunderground v.1.15,2013-06-18 14:22:00,
2013-06-18 09:27:00,71.2,61.3,29.93,East,82,2.0,7.0,71,0.00,,,0.00,Wunderground v.1.15,2013-06-18 14:27:00,
2013-06-18 09:32:00,71.1,61.2,29.93,NE,56,2.0,6.0,71,0.00,,,0.00,Wunderground v.1.15,2013-06-18 14:32:00,
2013-06-18 09:37:00,71.2,61.7,29.93,East,94,3.0,8.0,72,0.00,,,0.00,Wunderground v.1.15,2013-06-18 14:37:00,
2013-06-18 09:42:00,71.5,61.6,29.92,East,81,3.0,7.0,71,0.00,,,0.00,Wunderground v.1.15,2013-06-18 14:42:00,
2013-06-18 09:47:00,71.5,62.0,29.93,East,90,3.0,7.0,72,0.00,,,0.00,Wunderground v.1.15,2013-06-18 14:47:00,
2013-06-18 09:52:00,71.7,61.0,29.93,ESE,107,3.0,3.0,69,0.00,,,0.00,Wunderground v.1.15,2013-06-18 14:52:00,
2013-06-18 09:57:00,72.1,63.0,29.94,SE,129,2.0,3.0,73,0.00,,,0.00,Wunderground v.1.15,2013-06-18 14:57:00,
2013-06-18 10:03:00,72.2,61.5,29.93,ESE,109,2.0,5.0,69,0.00,,,0.00,Wunderground v.1.15,2013-06-18 15:03:00,
2013-06-18 10:08:00,72.3,62.0,29.93,East,92,3.0,5.0,70,0.00,,,0.00,Wunderground v.1.15,2013-06-18 15:08:00,
2013-06-18 10:13:00,72.9,63.3,29.93,WSW,255,1.0,2.0,72,0.00,,,0.00,Wunderground v.1.15,2013-06-18 15:13:00,
2013-06-18 10:18:00,73.6,62.4,29.93,NE,46,1.0,4.0,68,0.00,,,0.00,Wunderground v.1.15,2013-06-18 15:18:00,
2013-06-18 10:23:00,73.4,63.8,29.93,NNW,329,2.0,6.0,72,0.00,,,0.00,Wunderground v.1.15,2013-06-18 15:23:00,
2013-06-18 10:29:00,73.9,64.7,29.93,ENE,68,1.0,6.0,73,0.00,,,0.00,Wunderground v.1.15,2013-06-18 15:29:00,
2013-06-18 10:34:00,73.7,62.5,29.93,NE,44,1.0,3.0,68,0.00,,,0.00,Wunderground v.1.15,2013-06-18 15:34:00,
2013-06-18 10:39:00,73.3,62.1,29.93,ENE,60,2.0,3.0,68,0.00,,,0.00,Wunderground v.1.15,2013-06-18 15:39:00,
2013-06-18 10:44:00,73.2,62.8,29.93,NE,53,2.0,3.0,70,0.00,,,0.00,Wunderground v.1.15,2013-06-18 15:44:00,
2013-06-18 10:49:00,73.6,63.2,29.93,NE,54,2.0,5.0,70,0.00,,,0.00,Wunderground v.1.15,2013-06-18 15:49:00,
2013-06-18 10:54:00,74.2,63.4,29.93,NE,56,2.0,5.0,69,0.00,,,0.00,Wunderground v.1.15,2013-06-18 15:54:00,
2013-06-18 11:00:00,74.6,64.6,29.93,SE,130,3.0,3.0,71,0.00,,,0.00,Wunderground v.1.15,2013-06-18 16:00:00,
2013-06-18 11:06:00,74.8,62.7,29.93,ENE,71,3.0,6.0,66,0.00,,,0.00,Wunderground v.1.15,2013-06-18 16:06:00,
2013-06-18 11:11:00,74.9,62.3,29.93,ESE,115,3.0,5.0,65,0.00,,,0.00,Wunderground v.1.15,2013-06-18 16:11:00,
2013-06-18 11:17:00,75.4,64.1,29.93,ENE,67,2.0,7.0,68,0.00,,,0.00,Wunderground v.1.15,2013-06-18 16:17:00,
2013-06-18 11:22:00,75.6,62.6,29.94,East,91,2.0,5.0,64,0.00,,,0.00,Wunderground v.1.15,2013-06-18 16:22:00,
2013-06-18 11:27:00,75.2,63.1,29.94,ENE,77,2.0,5.0,66,0.00,,,0.00,Wunderground v.1.15,2013-06-18 16:27:00,
2013-06-18 11:32:00,75.5,63.3,29.94,NE,47,1.0,4.0,66,0.00,,,0.00,Wunderground v.1.15,2013-06-18 16:32:00,
2013-06-18 11:37:00,75.2,63.1,29.94,East,79,1.0,5.0,66,0.00,,,0.00,Wunderground v.1.15,2013-06-18 16:37:00,
2013-06-18 11:42:00,75.5,63.3,29.94,ENE,58,3.0,5.0,66,0.00,,,0.00,Wunderground v.1.15,2013-06-18 16:42:00,
2013-06-18 11:48:00,75.5,62.9,29.94,SE,125,4.0,9.0,65,0.00,,,0.00,Wunderground v.1.15,2013-06-18 16:48:00,
2013-06-18 11:53:00,76.0,65.1,29.94,NW,321,3.0,4.0,69,0.00,,,0.00,Wunderground v.1.15,2013-06-18 16:53:00,
2013-06-18 11:58:00,76.7,63.2,29.94,ENE,68,2.0,4.0,63,0.00,,,0.00,Wunderground v.1.15,2013-06-18 16:58:00,
2013-06-18 12:03:00,76.6,63.5,29.94,ENE,65,2.0,6.0,64,0.00,,,0.00,Wunderground v.1.15,2013-06-18 17:03:00,
2013-06-18 12:08:00,76.5,63.0,29.94,ENE,64,4.0,6.0,63,0.00,,,0.00,Wunderground v.1.15,2013-06-18 17:08:00,
2013-06-18 12:14:00,76.8,63.2,29.94,SE,134,3.0,4.0,63,0.00,,,0.00,Wunderground v.1.15,2013-06-18 17:14:00,
2013-06-18 12:19:00,76.8,63.7,29.94,East,88,3.0,7.0,64,0.00,,,0.00,Wunderground v.1.15,2013-06-18 17:19:00,
2013-06-18 12:24:00,76.4,63.8,29.94,ENE,59,4.0,5.0,65,0.00,,,0.00,Wunderground v.1.15,2013-06-18 17:24:00,
2013-06-18 12:29:00,76.5,63.9,29.93,ENE,61,4.0,5.0,65,0.00,,,0.00,Wunderground v.1.15,2013-06-18 17:29:00,
2013-06-18 12:34:00,76.7,63.6,29.94,ENE,63,2.0,4.0,64,0.00,,,0.00,Wunderground v.1.15,2013-06-18 17:34:00,
2013-06-18 12:40:00,76.6,64.4,29.94,NE,56,2.0,2.0,66,0.00,,,0.00,Wunderground v.1.15,2013-06-18 17:40:00,
2013-06-18 12:45:00,77.0,64.8,29.94,ENE,77,1.0,2.0,66,0.00,,,0.00,Wunderground v.1.15,2013-06-18 17:45:00,
2013-06-18 12:50:00,77.0,64.3,29.94,NE,44,2.0,5.0,65,0.00,,,0.00,Wunderground v.1.15,2013-06-18 17:50:00,
2013-06-18 12:55:00,77.0,64.3,29.94,ENE,75,3.0,5.0,65,0.00,,,0.00,Wunderground v.1.15,2013-06-18 17:55:00,
2013-06-18 13:00:00,77.0,64.3,29.94,West,277,4.0,4.0,65,0.00,,,0.00,Wunderground v.1.15,2013-06-18 18:00:00,
2013-06-18 13:06:00,77.4,64.7,29.94,ESE,120,3.0,5.0,65,0.00,,,0.00,Wunderground v.1.15,2013-06-18 18:06:00,
2013-06-18 13:11:00,77.3,64.2,29.94,ENE,58,2.0,7.0,64,0.00,,,0.00,Wunderground v.1.15,2013-06-18 18:11:00,
2013-06-18 13:16:00,77.4,64.7,29.94,ENE,67,2.0,7.0,65,0.00,,,0.00,Wunderground v.1.15,2013-06-18 18:16:00,
2013-06-18 13:21:00,77.4,65.6,29.95,North,4,2.0,3.0,67,0.00,,,0.00,Wunderground v.1.15,2013-06-18 18:21:00,
2013-06-18 13:26:00,77.4,63.8,29.94,East,84,3.0,7.0,63,0.00,,,0.00,Wunderground v.1.15,2013-06-18 18:26:00,
2013-06-18 13:32:00,77.4,63.8,29.94,East,85,3.0,4.0,63,0.00,,,0.00,Wunderground v.1.15,2013-06-18 18:32:00,
2013-06-18 13:37:00,77.8,65.1,29.94,NE,44,3.0,4.0,65,0.00,,,0.00,Wunderground v.1.15,2013-06-18 18:37:00,
2013-06-18 13:42:00,78.3,65.6,29.94,West,277,2.0,3.0,65,0.00,,,0.00,Wunderground v.1.15,2013-06-18 18:42:00,
2013-06-18 13:47:00,79.4,67.0,29.94,NNW,342,1.0,3.0,66,0.00,,,0.00,Wunderground v.1.15,2013-06-18 18:47:00,
2013-06-18 13:52:00,79.4,65.2,29.94,NE,55,1.0,7.0,62,0.00,,,0.00,Wunderground v.1.15,2013-06-18 18:52:00,
2013-06-18 13:58:00,78.8,65.1,29.94,WNW,286,3.0,7.0,63,0.00,,,0.00,Wunderground v.1.15,2013-06-18 18:58:00,
2013-06-18 14:03:00,78.9,63.4,29.94,ESE,115,3.0,8.0,59,0.00,,,0.00,Wunderground v.1.15,2013-06-18 19:03:00,
2013-06-18 14:08:00,79.0,65.8,29.93,SSW,210,3.0,8.0,64,0.00,,,0.00,Wunderground v.1.15,2013-06-18 19:08:00,
2013-06-18 14:13:00,79.5,63.4,29.93,ENE,73,2.0,8.0,58,0.00,,,0.00,Wunderground v.1.15,2013-06-18 19:13:00,
2013-06-18 14:18:00,79.2,66.4,29.93,NE,56,2.0,8.0,65,0.00,,,0.00,Wunderground v.1.15,2013-06-18 19:18:00,
2013-06-18 14:24:00,79.1,64.0,29.93,ENE,70,2.0,4.0,60,0.00,,,0.00,Wunderground v.1.15,2013-06-18 19:24:00,
2013-06-18 14:29:00,79.0,64.9,29.93,East,96,3.0,6.0,62,0.00,,,0.00,Wunderground v.1.15,2013-06-18 19:29:00,
2013-06-18 14:34:00,79.2,64.1,29.93,NE,46,3.0,4.0,60,0.00,,,0.00,Wunderground v.1.15,2013-06-18 19:34:00,
2013-06-18 14:39:00,79.4,63.8,29.93,ESE,110,3.0,7.0,59,0.00,,,0.00,Wunderground v.1.15,2013-06-18 19:39:00,
2013-06-18 14:44:00,79.7,66.0,29.93,East,96,3.0,7.0,63,0.00,,,0.00,Wunderground v.1.15,2013-06-18 19:44:00,
2013-06-18 14:49:00,79.7,66.4,29.93,ESE,103,3.0,3.0,64,0.00,,,0.00,Wunderground v.1.15,2013-06-18 19:49:00,
2013-06-18 14:54:00,79.4,66.2,29.93,North,353,2.0,5.0,64,0.00,,,0.00,Wunderground v.1.15,2013-06-18 19:54:00,
2013-06-18 15:00:00,79.5,66.3,29.93,ENE,75,1.0,1.0,64,0.00,,,0.00,Wunderground v.1.15,2013-06-18 20:00:00,
2013-06-18 15:06:00,79.1,64.5,29.93,ENE,73,2.0,5.0,61,0.00,,,0.00,Wunderground v.1.15,2013-06-18 20:06:00,
2013-06-18 15:12:00,79.1,65.4,29.93,North,356,2.0,2.0,63,0.00,,,0.00,Wunderground v.1.15,2013-06-18 20:12:00,
2013-06-18 15:17:00,79.3,65.1,29.93,NNE,15,1.0,2.0,62,0.00,,,0.00,Wunderground v.1.15,2013-06-18 20:17:00,
2013-06-18 15:22:00,79.3,63.7,29.94,NE,48,1.0,5.0,59,0.00,,,0.00,Wunderground v.1.15,2013-06-18 20:22:00,
2013-06-18 15:27:00,79.5,64.9,29.94,East,96,2.0,5.0,61,0.00,,,0.00,Wunderground v.1.15,2013-06-18 20:27:00,
2013-06-18 15:32:00,79.7,63.1,29.94,ENE,71,2.0,4.0,57,0.00,,,0.00,Wunderground v.1.15,2013-06-18 20:32:00,
2013-06-18 15:38:00,79.3,63.2,29.94,SE,145,3.0,5.0,58,0.00,,,0.00,Wunderground v.1.15,2013-06-18 20:38:00,
2013-06-18 15:43:00,79.5,63.4,29.93,East,91,2.0,3.0,58,0.00,,,0.00,Wunderground v.1.15,2013-06-18 20:43:00,
2013-06-18 15:48:00,80.1,62.5,29.93,ENE,64,1.0,5.0,55,0.00,,,0.00,Wunderground v.1.15,2013-06-18 20:48:00,
2013-06-18 15:53:00,80.1,64.5,29.93,NNE,23,2.0,4.0,59,0.00,,,0.00,Wunderground v.1.15,2013-06-18 20:53:00,
2013-06-18 15:58:00,79.7,63.1,29.93,NE,53,2.0,4.0,57,0.00,,,0.00,Wunderground v.1.15,2013-06-18 20:58:00,
2013-06-18 16:04:00,79.1,62.6,29.93,ESE,117,1.0,2.0,57,0.00,,,0.00,Wunderground v.1.15,2013-06-18 21:04:00,
2013-06-18 16:09:00,79.3,63.2,29.93,East,100,0.0,2.0,58,0.00,,,0.00,Wunderground v.1.15,2013-06-18 21:09:00,
2013-06-18 16:14:00,78.9,64.3,29.94,NNW,337,1.0,3.0,61,0.00,,,0.00,Wunderground v.1.15,2013-06-18 21:14:00,
2013-06-18 16:19:00,78.5,64.9,29.94,North,9,1.0,3.0,63,0.00,,,0.00,Wunderground v.1.15,2013-06-18 21:19:00,
2013-06-18 16:24:00,79.0,63.4,29.93,NNW,345,1.0,2.0,59,0.00,,,0.00,Wunderground v.1.15,2013-06-18 21:24:00,
2013-06-18 16:30:00,79.6,65.0,29.94,NE,54,1.0,1.0,61,0.00,,,0.00,Wunderground v.1.15,2013-06-18 21:30:00,
2013-06-18 16:35:00,79.6,63.5,29.94,ENE,58,2.0,5.0,58,0.00,,,0.00,Wunderground v.1.15,2013-06-18 21:35:00,
2013-06-18 16:40:00,79.4,62.3,29.94,NE,55,2.0,2.0,56,0.00,,,0.00,Wunderground v.1.15,2013-06-18 21:40:00,
2013-06-18 16:45:00,79.2,62.1,29.94,ENE,67,2.0,7.0,56,0.00,,,0.00,Wunderground v.1.15,2013-06-18 21:45:00,
2013-06-18 16:50:00,78.9,62.4,29.93,NNE,23,2.0,2.0,57,0.00,,,0.00,Wunderground v.1.15,2013-06-18 21:50:00,
2013-06-18 16:56:00,79.1,63.1,29.94,ENE,63,2.0,2.0,58,0.00,,,0.00,Wunderground v.1.15,2013-06-18 21:56:00,
2013-06-18 17:01:00,79.1,63.1,29.94,East,96,2.0,5.0,58,0.00,,,0.00,Wunderground v.1.15,2013-06-18 22:01:00,
2013-06-18 17:06:00,78.8,61.8,29.94,ENE,70,3.0,10.0,56,0.00,,,0.00,Wunderground v.1.15,2013-06-18 22:06:00,
2013-06-18 17:11:00,78.8,62.8,29.94,ENE,74,3.0,3.0,58,0.00,,,0.00,Wunderground v.1.15,2013-06-18 22:11:00,
2013-06-18 17:16:00,78.8,62.3,29.94,East,91,2.0,3.0,57,0.00,,,0.00,Wunderground v.1.15,2013-06-18 22:16:00,
2013-06-18 17:22:00,79.3,63.2,29.93,ENE,67,1.0,1.0,58,0.00,,,0.00,Wunderground v.1.15,2013-06-18 22:22:00,
2013-06-18 17:27:00,79.5,62.4,29.93,East,100,0.0,2.0,56,0.00,,,0.00,Wunderground v.1.15,2013-06-18 22:27:00,
2013-06-18 17:32:00,79.1,64.0,29.93,NE,44,1.0,2.0,60,0.00,,,0.00,Wunderground v.1.15,2013-06-18 22:32:00,
2013-06-18 17:37:00,79.1,62.6,29.93,East,86,2.0,2.0,57,0.00,,,0.00,Wunderground v.1.15,2013-06-18 22:37:00,
2013-06-18 17:42:00,78.9,62.9,29.93,East,82,1.0,2.0,58,0.00,,,0.00,Wunderground v.1.15,2013-06-18 22:42:00,
2013-06-18 17:47:00,79.0,63.4,29.92,ENE,70,1.0,2.0,59,0.00,,,0.00,Wunderground v.1.15,2013-06-18 22:47:00,
2013-06-18 17:52:00,79.3,63.7,29.92,ESE,109,1.0,1.0,59,0.00,,,0.00,Wunderground v.1.15,2013-06-18 22:52:00,
2013-06-18 17:57:00,79.5,62.4,29.93,NW,312,0.0,2.0,56,0.00,,,0.00,Wunderground v.1.15,2013-06-18 22:57:00,
2013-06-18 18:02:00,79.4,61.3,29.92,ENE,61,1.0,2.0,54,0.00,,,0.00,Wunderground v.1.15,2013-06-18 23:02:00,
2013-06-18 18:08:00,79.0,61.5,29.93,NNW,347,1.0,2.0,55,0.00,,,0.00,Wunderground v.1.15,2013-06-18 23:08:00,
2013-06-18 18:13:00,78.7,63.6,29.93,NNE,26,2.0,6.0,60,0.00,,,0.00,Wunderground v.1.15,2013-06-18 23:13:00,
2013-06-18 18:18:00,78.6,64.0,29.93,ENE,61,1.0,6.0,61,0.00,,,0.00,Wunderground v.1.15,2013-06-18 23:18:00,
2013-06-18 18:23:00,78.3,62.8,29.93,WNW,282,1.0,6.0,59,0.00,,,0.00,Wunderground v.1.15,2013-06-18 23:23:00,
2013-06-18 18:28:00,77.9,61.9,29.93,ESE,105,2.0,6.0,58,0.00,,,0.00,Wunderground v.1.15,2013-06-18 23:28:00,
2013-06-18 18:33:00,77.5,61.6,29.93,ENE,75,2.0,6.0,58,0.00,,,0.00,Wunderground v.1.15,2013-06-18 23:33:00,
2013-06-18 18:39:00,77.2,61.8,29.93,ENE,61,2.0,5.0,59,0.00,,,0.00,Wunderground v.1.15,2013-06-18 23:39:00,
2013-06-18 18:44:00,77.0,62.5,29.93,ESE,119,2.0,5.0,61,0.00,,,0.00,Wunderground v.1.15,2013-06-18 23:44:00,
2013-06-18 18:49:00,76.8,61.4,29.94,ENE,58,3.0,3.0,59,0.00,,,0.00,Wunderground v.1.15,2013-06-18 23:49:00,
2013-06-18 18:54:00,76.5,61.1,29.94,ENE,61,3.0,4.0,59,0.00,,,0.00,Wunderground v.1.15,2013-06-18 23:54:00,
2013-06-18 19:00:00,76.3,61.4,29.94,East,81,3.0,3.0,60,0.00,,,0.00,Wunderground v.1.15,2013-06-19 00:00:00,
2013-06-18 19:05:00,76.2,62.2,29.94,East,86,1.0,3.0,62,0.00,,,0.00,Wunderground v.1.15,2013-06-19 00:05:00,
2013-06-18 19:10:00,76.0,61.6,29.94,ENE,77,1.0,1.0,61,0.00,,,0.00,Wunderground v.1.15,2013-06-19 00:10:00,
2013-06-18 19:15:00,75.5,61.1,29.94,ENE,64,2.0,5.0,61,0.00,,,0.00,Wunderground v.1.15,2013-06-19 00:15:00,
2013-06-18 19:20:00,75.2,61.3,29.94,West,266,2.0,2.0,62,0.00,,,0.00,Wunderground v.1.15,2013-06-19 00:20:00,
2013-06-18 19:25:00,74.9,61.0,29.94,NE,40,2.0,2.0,62,0.00,,,0.00,Wunderground v.1.15,2013-06-19 00:25:00,
2013-06-18 19:30:00,74.7,60.8,29.94,ENE,75,2.0,2.0,62,0.00,,,0.00,Wunderground v.1.15,2013-06-19 00:30:00,
2013-06-18 19:36:00,74.3,60.9,29.95,East,98,2.0,5.0,63,0.00,,,0.00,Wunderground v.1.15,2013-06-19 00:36:00,
2013-06-18 19:41:00,74.0,61.0,29.95,ENE,63,1.0,2.0,64,0.00,,,0.00,Wunderground v.1.15,2013-06-19 00:41:00,
2013-06-18 19:46:00,73.6,60.7,29.95,ESE,114,1.0,2.0,64,0.00,,,0.00,Wunderground v.1.15,2013-06-19 00:46:00,
2013-06-18 19:51:00,73.5,60.6,29.95,ENE,63,1.0,5.0,64,0.00,,,0.00,Wunderground v.1.15,2013-06-19 00:51:00,
2013-06-18 19:56:00,73.3,60.4,29.96,NE,34,2.0,5.0,64,0.00,,,0.00,Wunderground v.1.15,2013-06-19 00:56:00,
2013-06-18 20:02:00,73.1,60.2,29.96,NE,56,2.0,5.0,64,0.00,,,0.00,Wunderground v.1.15,2013-06-19 01:02:00,
2013-06-18 20:07:00,72.9,60.4,29.96,NW,325,3.0,5.0,65,0.00,,,0.00,Wunderground v.1.15,2013-06-19 01:07:00,
2013-06-18 20:12:00,72.7,60.3,29.97,NNE,22,2.0,3.0,65,0.00,,,0.00,Wunderground v.1.15,2013-06-19 01:12:00,
2013-06-18 20:17:00,72.4,60.0,29.97,ESE,120,2.0,4.0,65,0.00,,,0.00,Wunderground v.1.15,2013-06-19 01:17:00,
2013-06-18 20:22:00,72.1,59.7,29.97,East,90,2.0,4.0,65,0.00,,,0.00,Wunderground v.1.15,2013-06-19 01:22:00,
2013-06-18 20:28:00,71.9,59.5,29.97,ENE,68,2.0,4.0,65,0.00,,,0.00,Wunderground v.1.15,2013-06-19 01:28:00,
2013-06-18 20:33:00,71.6,59.6,29.97,ENE,71,2.0,7.0,66,0.00,,,0.00,Wunderground v.1.15,2013-06-19 01:33:00,
2013-06-18 20:38:00,71.3,59.8,29.97,ENE,63,1.0,7.0,67,0.00,,,0.00,Wunderground v.1.15,2013-06-19 01:38:00,
2013-06-18 20:43:00,70.9,59.4,29.97,NE,43,0.0,1.0,67,0.00,,,0.00,Wunderground v.1.15,2013-06-19 01:43:00,
2013-06-18 20:48:00,70.6,59.5,29.97,ENE,58,1.0,2.0,68,0.00,,,0.00,Wunderground v.1.15,2013-06-19 01:48:00,
2013-06-18 20:54:00,70.2,59.1,29.97,NE,51,1.0,3.0,68,0.00,,,0.00,Wunderground v.1.15,2013-06-19 01:54:00,
2013-06-18 20:59:00,69.9,58.9,29.97,NNE,33,1.0,3.0,68,0.00,,,0.00,Wunderground v.1.15,2013-06-19 01:59:00,
2013-06-18 21:04:00,69.9,59.3,29.98,NE,54,1.0,3.0,69,0.00,,,0.00,Wunderground v.1.15,2013-06-19 02:04:00,
2013-06-18 21:09:00,69.7,59.1,29.97,East,101,1.0,10.0,69,0.00,,,0.00,Wunderground v.1.15,2013-06-19 02:09:00,
2013-06-18 21:14:00,69.6,58.6,29.97,NE,56,1.0,5.0,68,0.00,,,0.00,Wunderground v.1.15,2013-06-19 02:14:00,
2013-06-18 21:20:00,69.4,58.4,29.98,ENE,65,2.0,3.0,68,0.00,,,0.00,Wunderground v.1.15,2013-06-19 02:20:00,
2013-06-18 21:25:00,69.3,58.3,29.98,NE,44,1.0,3.0,68,0.00,,,0.00,Wunderground v.1.15,2013-06-19 02:25:00,
2013-06-18 21:30:00,69.1,58.5,29.98,North,11,1.0,1.0,69,0.00,,,0.00,Wunderground v.1.15,2013-06-19 02:30:00,
2013-06-18 21:35:00,68.8,58.2,29.99,ENE,72,1.0,2.0,69,0.00,,,0.00,Wunderground v.1.15,2013-06-19 02:35:00,
2013-06-18 21:40:00,68.7,58.1,29.99,East,89,2.0,2.0,69,0.00,,,0.00,Wunderground v.1.15,2013-06-19 02:40:00,
2013-06-18 21:46:00,68.4,58.2,29.99,NE,56,1.0,2.0,70,0.00,,,0.00,Wunderground v.1.15,2013-06-19 02:46:00,
2013-06-18 21:51:00,68.2,58.0,29.99,ENE,58,1.0,1.0,70,0.00,,,0.00,Wunderground v.1.15,2013-06-19 02:51:00,
2013-06-18 21:56:00,67.9,57.8,30.00,ENE,63,0.0,1.0,70,0.00,,,0.00,Wunderground v.1.15,2013-06-19 02:56:00,
2013-06-18 22:01:00,67.7,58.0,30.00,NE,49,0.0,5.0,71,0.00,,,0.00,Wunderground v.1.15,2013-06-19 03:01:00,
2013-06-18 22:06:00,67.6,57.9,30.00,ENE,78,1.0,5.0,71,0.00,,,0.00,Wunderground v.1.15,2013-06-19 03:06:00,
2013-06-18 22:12:00,67.3,58.0,30.00,NE,36,1.0,1.0,72,0.00,,,0.00,Wunderground v.1.15,2013-06-19 03:12:00,
2013-06-18 22:17:00,67.1,57.8,30.00,East,84,1.0,1.0,72,0.00,,,0.00,Wunderground v.1.15,2013-06-19 03:17:00,
2013-06-18 22:22:00,66.9,58.0,30.00,ENE,71,0.0,1.0,73,0.00,,,0.00,Wunderground v.1.15,2013-06-19 03:22:00,
2013-06-18 22:27:00,66.6,57.7,30.00,East,90,0.0,3.0,73,0.00,,,0.00,Wunderground v.1.15,2013-06-19 03:27:00,
2013-06-18 22:32:00,66.5,57.6,30.00,ENE,78,1.0,5.0,73,0.00,,,0.00,Wunderground v.1.15,2013-06-19 03:32:00,
2013-06-18 22:37:00,66.5,57.2,30.00,ENE,75,1.0,6.0,72,0.00,,,0.00,Wunderground v.1.15,2013-06-19 03:37:00,
2013-06-18 22:42:00,66.4,57.1,30.00,NE,39,1.0,1.0,72,0.00,,,0.00,Wunderground v.1.15,2013-06-19 03:42:00,
2013-06-18 22:47:00,66.2,57.3,30.00,ENE,70,0.0,1.0,73,0.00,,,0.00,Wunderground v.1.15,2013-06-19 03:47:00,
2013-06-18 22:52:00,66.0,57.1,30.00,NE,50,0.0,2.0,73,0.00,,,0.00,Wunderground v.1.15,2013-06-19 03:52:00,
2013-06-18 22:57:00,65.8,56.9,30.00,ENE,65,0.0,3.0,73,0.00,,,0.00,Wunderground v.1.15,2013-06-19 03:57:00,
2013-06-18 23:01:00,65.8,56.9,30.00,ENE,78,0.0,1.0,73,0.00,,,0.00,Wunderground v.1.15,2013-06-19 04:01:00,
2013-06-18 23:03:00,65.7,56.8,30.01,NE,42,1.0,4.0,73,0.00,,,0.00,Wunderground v.1.15,2013-06-19 04:03:00,
2013-06-18 23:05:00,65.6,56.7,30.00,ENE,71,1.0,4.0,73,0.00,,,0.00,Wunderground v.1.15,2013-06-19 04:05:00,
2013-06-18 23:08:00,65.5,57.0,30.01,East,90,1.0,4.0,74,0.00,,,0.00,Wunderground v.1.15,2013-06-19 04:08:00,
2013-06-18 23:13:00,65.4,56.9,30.00,East,90,1.0,5.0,74,0.00,,,0.00,Wunderground v.1.15,2013-06-19 04:13:00,
2013-06-18 23:17:00,65.4,56.9,30.00,ENE,58,1.0,5.0,74,0.00,,,0.00,Wunderground v.1.15,2013-06-19 04:17:00,
2013-06-18 23:22:00,65.2,56.7,30.00,NNE,30,1.0,5.0,74,0.00,,,0.00,Wunderground v.1.15,2013-06-19 04:22:00,
2013-06-18 23:27:00,65.0,56.9,30.00,ENE,58,1.0,7.0,75,0.00,,,0.00,Wunderground v.1.15,2013-06-19 04:27:00,
2013-06-18 23:33:00,64.9,56.8,30.01,ENE,65,2.0,2.0,75,0.00,,,0.00,Wunderground v.1.15,2013-06-19 04:33:00,
2013-06-18 23:38:00,64.9,56.8,30.01,East,80,2.0,5.0,75,0.00,,,0.00,Wunderground v.1.15,2013-06-19 04:38:00,
2013-06-18 23:43:00,64.7,56.6,30.01,ENE,64,3.0,3.0,75,0.00,,,0.00,Wunderground v.1.15,2013-06-19 04:43:00,
2013-06-18 23:48:00,64.6,56.5,30.01,ENE,65,2.0,7.0,75,0.00,,,0.00,Wunderground v.1.15,2013-06-19 04:48:00,
2013-06-18 23:53:00,64.4,56.3,30.01,ENE,57,2.0,3.0,75,0.00,,,0.00,Wunderground v.1.15,2013-06-19 04:53:00,
2013-06-18 23:58:00,64.2,56.5,30.01,ENE,74,2.0,3.0,76,0.00,,,0.00,Wunderground v.1.15,2013-06-19 04:58:00,